KHOU/HOU METAR and TAF weather

Enter ICAO airport designator
Station Type Date Time Source
KHOU METAR 2019/10/15 17:53 UTC NOAA

KHOU 151753Z 21010KT 10SM SCT040 SCT250 33/22 A2991 RMK AO2 SLP132 T03280222 10328 20256 58014


Station Type Date Time Source
KHOU Decoded METAR 2019/10/15 17:53 UTC NOAA

HOUSTON HOBBY AIRPORT, TX, United States (KHOU) 29-38N 095-17W 36M
Oct 15, 2019 - 01:53 PM EDT / 2019.10.15 1753 UTC
Wind: from the SSW (210 degrees) at 12 MPH (10 KT):0
Visibility: 10 mile(s):0
Sky conditions: partly cloudy
Temperature: 91.0 F (32.8 C)
Heat index: 98.1 F (36.7 C):1
Dew Point: 72.0 F (22.2 C)
Relative Humidity: 53%
Pressure (altimeter): 29.91 in. Hg (1012 hPa)
Pressure tendency: 0.04 inches (1.4 hPa) lower than three hours ago
ob: KHOU 151753Z 21010KT 10SM SCT040 SCT250 33/22 A2991 RMK AO2 SLP132 T03280222 10328 20256 58014
cycle: 18

Station Type Date Time Source
KHOU TAF 2019/10/15 18:22 UTC NOAA

TAF KHOU 151720Z 1518/1618 22009KT P6SM SCT030 SCT250
FM160000 18005KT P6SM BKN050 BKN120
FM160600 21007KT P6SM VCSH SCT025 BKN200
FM160900 34010KT P6SM VCTS BKN035CB BKN250
TEMPO 1611/1613 TSRA BKN012 OVC025CB
FM161600 35007KT P6SM BKN020

Example: see airport list